createdAt,value
2023-03-23T15:58:24.172Z,0.80
2023-03-23T16:00:53.691Z,0.70
2023-03-23T16:03:27.645Z,0.90
2023-03-23T16:05:59.863Z,1.07
2023-03-23T16:08:28.223Z,0.83
2023-03-23T16:10:56.232Z,0.87
2023-03-23T16:13:24.358Z,0.90
2023-03-23T16:15:52.725Z,0.90
2023-03-23T16:18:23.464Z,1.03
2023-03-23T16:20:51.899Z,1.27
2023-03-23T16:23:21.111Z,0.83
2023-03-23T16:25:49.203Z,1.20
2023-03-23T16:28:17.368Z,1.37
2023-03-23T16:30:46.057Z,0.90
2023-03-23T16:33:14.152Z,0.80
2023-03-23T16:35:43.032Z,1.00
2023-03-23T16:38:14.928Z,0.97
2023-03-23T16:40:45.551Z,1.60
2023-03-23T16:43:14.082Z,1.23
2023-03-23T16:45:44.239Z,1.20
2023-03-23T16:48:13.748Z,0.97
2023-03-23T16:50:42.289Z,0.80
2023-03-23T16:53:11.243Z,1.07
2023-03-23T16:55:40.597Z,0.70
2023-03-23T16:58:17.166Z,1.00
2023-03-23T17:00:48.117Z,1.10
2023-03-23T17:03:16.965Z,0.90
2023-03-23T17:05:46.245Z,1.20
2023-03-23T17:08:14.673Z,1.07
2023-03-23T17:10:43.786Z,1.10
2023-03-23T17:13:13.549Z,1.30
2023-03-23T17:15:46.077Z,1.13
2023-03-23T17:18:16.484Z,1.10
2023-03-23T17:20:44.764Z,1.50
2023-03-23T17:23:13.033Z,1.00
2023-03-23T17:25:41.293Z,0.90
2023-03-23T17:28:09.205Z,0.90
2023-03-23T17:30:41.568Z,1.13
2023-03-23T17:33:13.209Z,1.10
2023-03-23T17:35:41.358Z,1.20
2023-03-23T17:38:09.169Z,1.67
2023-03-23T17:40:37.138Z,2.00
2023-03-23T17:43:05.440Z,1.97
2023-03-23T17:45:33.296Z,2.23
2023-03-23T17:48:07.551Z,1.30
2023-03-23T17:50:35.819Z,1.33
2023-03-23T17:53:03.811Z,1.50
2023-03-23T17:55:31.725Z,1.50
2023-03-23T17:57:59.862Z,1.50
2023-03-23T18:00:27.838Z,1.70
2023-03-23T18:02:56.491Z,1.57
2023-03-23T18:05:27.848Z,1.40
2023-03-23T18:07:55.894Z,2.23
2023-03-23T18:10:24.647Z,2.30
2023-03-23T18:12:52.612Z,2.10
2023-03-23T18:15:20.774Z,1.97
2023-03-23T18:17:50.716Z,2.43
2023-03-23T18:20:18.865Z,2.30
2023-03-23T18:22:48.074Z,2.20
2023-03-23T18:25:16.772Z,2.10
2023-03-23T18:27:44.722Z,2.73
2023-03-23T18:30:16.106Z,2.43
2023-03-23T18:32:44.437Z,2.47
2023-03-23T18:35:13.626Z,2.13
2023-03-23T18:37:41.507Z,2.30
2023-03-23T18:40:12.851Z,2.30
2023-03-23T18:42:42.057Z,2.90
2023-03-23T18:45:10.777Z,2.60
2023-03-23T18:47:38.865Z,2.40
2023-03-23T18:50:08.364Z,3.20
2023-03-23T18:52:37.059Z,2.80
2023-03-23T18:55:06.002Z,2.77
2023-03-23T18:57:35.837Z,3.10
2023-03-23T19:00:04.782Z,2.67
2023-03-23T19:02:32.977Z,3.17
2023-03-23T19:05:00.879Z,2.87
2023-03-23T19:07:30.220Z,2.97
2023-03-23T19:09:58.191Z,3.20
2023-03-23T19:12:26.058Z,2.90
2023-03-23T19:14:55.302Z,2.80
2023-03-23T19:17:25.414Z,2.80
2023-03-23T19:19:53.571Z,3.13
2023-03-23T19:22:21.403Z,2.83
2023-03-23T19:24:49.519Z,2.90
2023-03-23T19:27:18.007Z,3.00
2023-03-23T19:29:46.072Z,2.90
2023-03-23T19:32:16.075Z,3.07
2023-03-23T19:34:44.199Z,3.30
2023-03-23T19:37:12.261Z,3.10
2023-03-23T19:39:42.551Z,3.37
2023-03-23T19:42:11.017Z,3.33
2023-03-23T19:44:38.929Z,3.50
2023-03-23T19:47:07.558Z,4.40
2023-03-23T19:49:37.256Z,4.40
2023-03-23T19:52:12.041Z,4.40
2023-03-23T19:54:42.390Z,4.57
2023-03-23T19:57:11.034Z,4.57
2023-03-23T19:59:39.524Z,3.67
2023-03-23T20:02:08.012Z,3.93
2023-03-23T20:04:37.464Z,4.20
2023-03-23T20:07:07.452Z,4.10
2023-03-23T20:09:35.654Z,3.90
2023-03-23T20:14:32.470Z,4.63
2023-03-23T20:17:00.727Z,4.10
2023-03-23T20:19:28.695Z,3.83
2023-03-23T20:21:57.812Z,4.57
2023-03-23T20:24:25.676Z,3.97
2023-03-23T20:26:53.548Z,4.20
2023-03-23T20:29:21.344Z,4.30
2023-03-23T20:31:50.869Z,4.00
2023-03-23T20:34:28.717Z,4.70
2023-03-23T20:36:59.224Z,4.27
2023-03-23T20:39:30.607Z,4.73
2023-03-23T20:42:02.113Z,4.17
2023-03-23T20:44:34.820Z,4.37
2023-03-23T20:47:03.882Z,4.50
2023-03-23T20:49:33.259Z,4.57
2023-03-23T20:52:02.741Z,4.17
2023-03-23T20:54:31.693Z,4.33
2023-03-23T20:57:01.152Z,4.27
2023-03-23T20:59:29.401Z,4.30
2023-03-23T21:01:57.401Z,4.80
2023-03-23T21:04:27.686Z,4.93
2023-03-23T21:06:56.789Z,4.80
2023-03-23T21:09:26.448Z,4.80
2023-03-23T21:11:54.974Z,5.40
2023-03-23T21:14:22.819Z,4.60
2023-03-23T21:16:51.080Z,4.57
2023-03-23T21:19:19.670Z,4.50
2023-03-23T21:21:56.857Z,4.50
2023-03-23T21:24:28.642Z,4.33
2023-03-23T21:26:57.973Z,4.90
2023-03-23T21:29:27.399Z,4.40
2023-03-23T21:34:28.033Z,4.93
2023-03-23T21:36:55.696Z,4.50
2023-03-23T21:39:23.876Z,4.80
2023-03-23T21:41:52.939Z,5.23
2023-03-23T21:44:20.840Z,4.90
2023-03-23T21:46:48.631Z,5.37
2023-03-23T21:49:16.486Z,5.23
2023-03-23T21:51:44.255Z,5.50
2023-03-23T21:54:12.728Z,5.00
2023-03-23T21:56:40.609Z,4.73
2023-03-23T21:59:09.594Z,5.10
2023-03-23T22:01:38.105Z,5.27
2023-03-23T22:04:06.836Z,5.20
2023-03-23T22:06:34.834Z,4.83
2023-03-23T22:09:05.260Z,4.73
2023-03-23T22:11:33.430Z,4.40
2023-03-23T22:14:01.834Z,4.07
2023-03-23T22:16:31.985Z,4.10
2023-03-23T22:19:02.071Z,4.00
2023-03-23T22:21:30.600Z,4.27
2023-03-23T22:24:01.149Z,4.10
2023-03-23T22:26:30.289Z,3.80
2023-03-23T22:28:59.152Z,4.50
2023-03-23T22:31:28.788Z,4.53
2023-03-23T22:33:58.188Z,4.67
2023-03-23T22:36:28.164Z,4.77
2023-03-23T22:38:56.956Z,4.63
2023-03-23T22:41:27.197Z,4.40
2023-03-23T22:43:55.690Z,5.57
2023-03-23T22:46:23.482Z,5.33
2023-03-23T22:48:51.179Z,5.37
2023-03-23T22:51:21.339Z,5.73
2023-03-23T22:53:49.699Z,6.00
2023-03-23T22:56:17.948Z,5.40
2023-03-23T22:58:45.749Z,6.17
2023-03-23T23:01:15.100Z,5.90
2023-03-23T23:03:43.195Z,5.87
2023-03-23T23:06:13.112Z,6.13
2023-03-23T23:08:42.784Z,6.50
2023-03-23T23:11:13.627Z,6.70
2023-03-23T23:13:42.020Z,6.60
2023-03-23T23:16:11.172Z,6.90
2023-03-23T23:18:40.603Z,5.80
2023-03-23T23:21:11.082Z,6.20
2023-03-23T23:23:38.921Z,6.63
2023-03-23T23:26:09.492Z,6.57
2023-03-23T23:28:37.344Z,5.97
2023-03-23T23:31:07.607Z,6.73
2023-03-23T23:33:35.474Z,7.10
2023-03-23T23:36:03.389Z,5.97
2023-03-23T23:38:31.279Z,5.40
2023-03-23T23:40:59.184Z,5.50
2023-03-23T23:43:28.547Z,6.13
2023-03-23T23:45:56.565Z,5.30
2023-03-23T23:48:24.486Z,5.23
2023-03-23T23:50:52.718Z,5.10
2023-03-23T23:53:23.043Z,5.90
2023-03-23T23:55:51.196Z,5.47
2023-03-23T23:58:19.365Z,5.50
